createdAt,value
2018-03-02T00:00:48.844Z,44.7
2018-03-02T00:01:48.848Z,44.7
2018-03-02T00:02:48.571Z,44.7
2018-03-02T00:03:48.580Z,44.6
2018-03-02T00:04:48.918Z,44.42
2018-03-02T00:05:48.592Z,44.51
2018-03-02T00:06:48.596Z,44.89
2018-03-02T00:07:48.604Z,45.17
2018-03-02T00:08:48.612Z,45.36
2018-03-02T00:09:48.904Z,45.45
2018-03-02T00:10:48.916Z,45.45
2018-03-02T00:11:48.631Z,44.98
2018-03-02T00:12:48.918Z,45.45
2018-03-02T00:13:48.925Z,45.17
2018-03-02T00:14:48.698Z,45.36
2018-03-02T00:15:48.937Z,45.27
2018-03-02T00:16:48.943Z,45.64
2018-03-02T00:17:48.948Z,45.74
2018-03-02T00:18:48.674Z,45.83
2018-03-02T00:19:49.013Z,45.74
2018-03-02T00:20:48.973Z,45.64
2018-03-02T00:21:48.981Z,46.02
2018-03-02T00:22:48.698Z,45.93
2018-03-02T00:23:48.708Z,46.12
2018-03-02T00:24:48.996Z,46.5
2018-03-02T00:25:48.719Z,46.4
2018-03-02T00:26:49.010Z,46.4
2018-03-02T00:27:49.014Z,46.59
2018-03-02T00:28:49.020Z,45.93
2018-03-02T00:29:48.744Z,45.74
2018-03-02T00:30:48.752Z,45.74
2018-03-02T00:31:49.038Z,45.45
2018-03-02T00:32:49.048Z,45.27
2018-03-02T00:33:49.050Z,45.74
2018-03-02T00:34:48.779Z,45.83
2018-03-02T00:35:49.074Z,46.12
2018-03-02T00:36:48.792Z,45.93
2018-03-02T00:37:48.798Z,45.93
2018-03-02T00:38:49.087Z,46.59
2018-03-02T00:39:48.809Z,46.5
2018-03-02T00:40:48.815Z,46.78
2018-03-02T00:41:49.107Z,46.78
2018-03-02T00:42:48.825Z,46.59
2018-03-02T00:43:48.835Z,46.21
2018-03-02T00:44:49.123Z,46.02
2018-03-02T00:45:49.136Z,46.31
2018-03-02T00:46:49.137Z,46.21
2018-03-02T00:47:49.141Z,46.31
2018-03-02T00:48:48.864Z,46.5
2018-03-02T00:49:49.154Z,47.06
2018-03-02T00:50:49.159Z,47.06
2018-03-02T00:51:49.174Z,47.06
2018-03-02T00:52:49.171Z,47.25
2018-03-02T00:53:49.176Z,47.16
2018-03-02T00:54:48.905Z,46.21
2018-03-02T00:55:49.193Z,46.02
2018-03-02T00:56:48.917Z,45.55
2018-03-02T00:57:48.921Z,45.55
2018-03-02T00:58:49.210Z,45.55
2018-03-02T00:59:49.221Z,45.93
2018-03-02T01:00:49.226Z,46.02
2018-03-02T01:01:49.227Z,46.4
2018-03-02T01:02:49.238Z,46.5
2018-03-02T01:03:49.244Z,46.4
2018-03-02T01:04:48.964Z,46.31
2018-03-02T01:05:49.254Z,46.31
2018-03-02T01:06:48.978Z,46.5
2018-03-02T01:07:49.272Z,46.02
2018-03-02T01:08:49.270Z,46.4
2018-03-02T01:09:49.279Z,46.21
2018-03-02T01:10:49.002Z,46.4
2018-03-02T01:11:49.292Z,46.21
2018-03-02T01:12:49.295Z,46.12
2018-03-02T01:13:49.306Z,46.59
2018-03-02T01:14:49.034Z,46.69
2018-03-02T01:15:49.039Z,46.59
2018-03-02T01:16:49.322Z,46.31
2018-03-02T01:17:49.047Z,46.5
2018-03-02T01:18:49.053Z,46.31
2018-03-02T01:19:49.059Z,47.06
2018-03-02T01:20:49.350Z,46.78
2018-03-02T01:21:49.071Z,46.97
2018-03-02T01:22:49.359Z,47.06
2018-03-02T01:23:49.086Z,47.06
2018-03-02T01:24:49.092Z,47.06
2018-03-02T01:25:49.096Z,47.06
2018-03-02T01:26:49.387Z,47.06
2018-03-02T01:27:49.117Z,47.06
2018-03-02T01:28:49.400Z,46.97
2018-03-02T01:29:49.406Z,47.06
2018-03-02T01:30:49.414Z,47.34
2018-03-02T01:31:49.134Z,47.25
2018-03-02T01:32:49.141Z,47.16
2018-03-02T01:33:49.436Z,47.34
2018-03-02T01:34:49.435Z,47.53
2018-03-02T01:35:49.160Z,47.63
2018-03-02T01:36:49.447Z,47.06
2018-03-02T01:37:49.452Z,47.44
2018-03-02T01:38:49.462Z,47.34
2018-03-02T01:39:49.469Z,47.34
2018-03-02T01:40:49.190Z,47.25
2018-03-02T01:41:49.489Z,47.25
2018-03-02T01:42:49.485Z,47.16
2018-03-02T01:43:49.490Z,47.44
2018-03-02T01:44:49.211Z,47.44
2018-03-02T01:45:49.269Z,47.44
2018-03-02T01:46:49.508Z,47.44
2018-03-02T01:47:49.516Z,47.25
2018-03-02T01:48:49.237Z,47.34
2018-03-02T01:49:49.526Z,47.16
2018-03-02T01:50:49.250Z,47.53
2018-03-02T01:51:49.539Z,47.72
2018-03-02T01:52:49.264Z,48.01
2018-03-02T01:53:49.552Z,48.1
2018-03-02T01:54:49.558Z,48.39
2018-03-02T01:55:49.281Z,47.91
2018-03-02T01:56:49.567Z,47.82
2018-03-02T01:57:49.577Z,48.2
2018-03-02T01:58:49.582Z,48.57
2018-03-02T01:59:49.303Z,48.39
2018-03-02T02:00:49.643Z,48.57
2018-03-02T02:01:49.318Z,47.82
2018-03-02T02:02:49.607Z,47.72
2018-03-02T02:03:49.611Z,47.72
2018-03-02T02:04:49.625Z,47.91
2018-03-02T02:05:49.624Z,48.2
2018-03-02T02:06:49.348Z,48.2
2018-03-02T02:07:49.638Z,48.39
2018-03-02T02:08:49.361Z,48.29
2018-03-02T02:09:49.651Z,48.29
2018-03-02T02:10:49.424Z,48.01
2018-03-02T02:11:49.664Z,47.91
2018-03-02T02:12:49.670Z,48.57
2018-03-02T02:13:49.674Z,48.48
2018-03-02T02:14:49.400Z,48.2
2018-03-02T02:15:49.735Z,48.39
2018-03-02T02:16:49.694Z,48.1
2018-03-02T02:17:49.424Z,47.63
2018-03-02T02:18:49.420Z,47.82
2018-03-02T02:19:49.720Z,48.1
2018-03-02T02:20:49.433Z,48.39
2018-03-02T02:21:49.444Z,48.2
2018-03-02T02:22:49.728Z,48.39
2018-03-02T02:23:49.734Z,48.29
2018-03-02T02:24:49.458Z,48.39
2018-03-02T02:25:49.747Z,48.48
2018-03-02T02:26:49.606Z,48.48
2018-03-02T02:27:49.761Z,48.95
2018-03-02T02:28:49.767Z,48.57
2018-03-02T02:29:49.773Z,48.2
2018-03-02T02:30:49.827Z,48.29
2018-03-02T02:31:49.788Z,48.39
2018-03-02T02:32:49.530Z,48.95
2018-03-02T02:33:49.798Z,49.33
2018-03-02T02:34:49.801Z,49.05
2018-03-02T02:35:49.813Z,49.05
2018-03-02T02:36:49.531Z,48.48
2018-03-02T02:37:49.535Z,48.48
2018-03-02T02:38:49.834Z,48.67
2018-03-02T02:39:49.829Z,48.01
2018-03-02T02:40:49.835Z,48.1
2018-03-02T02:41:49.844Z,48.57
2018-03-02T02:42:49.568Z,48.36
2018-03-02T02:43:49.852Z,48.29
2018-03-02T02:44:49.865Z,48.2
2018-03-02T02:45:49.584Z,48.2
2018-03-02T02:46:49.589Z,48.2
2018-03-02T02:47:49.596Z,48.39
2018-03-02T02:48:49.602Z,48.39
2018-03-02T02:49:49.893Z,48.67
2018-03-02T02:50:49.903Z,48.48
2018-03-02T02:51:49.907Z,48.39
2018-03-02T02:52:49.915Z,48.39
2018-03-02T02:53:49.916Z,48.39
2018-03-02T02:54:49.934Z,48.2
2018-03-02T02:55:49.692Z,48.39
2018-03-02T02:56:49.649Z,48.95
2018-03-02T02:57:49.940Z,49.05
2018-03-02T02:58:49.945Z,49.62
2018-03-02T02:59:49.961Z,49.43
2018-03-02T03:00:50.005Z,49.9
2018-03-02T03:01:49.683Z,49.9
2018-03-02T03:02:49.970Z,48.95
2018-03-02T03:03:49.690Z,48.57
2018-03-02T03:04:49.980Z,48.39
2018-03-02T03:05:50.034Z,48.39
2018-03-02T03:06:49.993Z,48.83
2018-03-02T03:07:49.997Z,49.02
2018-03-02T03:08:50.005Z,48.95
2018-03-02T03:09:50.008Z,49.49
2018-03-02T03:10:50.067Z,49.59
2018-03-02T03:11:50.021Z,49.14
2018-03-02T03:12:50.026Z,49.68
2018-03-02T03:13:49.750Z,49.99
2018-03-02T03:14:49.754Z,49.52
2018-03-02T03:15:50.047Z,49.59
2018-03-02T03:16:50.054Z,49.71
2018-03-02T03:17:50.057Z,49.4
2018-03-02T03:18:49.780Z,49.87
2018-03-02T03:19:50.069Z,49.78
2018-03-02T03:20:50.084Z,49.33
2018-03-02T03:21:50.079Z,49.62
2018-03-02T03:22:49.805Z,49.21
2018-03-02T03:23:50.092Z,49.78
2018-03-02T03:24:50.097Z,49.4
2018-03-02T03:25:50.154Z,48.93
2018-03-02T03:26:50.117Z,48.46
2018-03-02T03:27:49.833Z,48.46
2018-03-02T03:28:50.121Z,48.36
2018-03-02T03:29:49.849Z,49.3
2018-03-02T03:30:50.138Z,48.93
2018-03-02T03:31:49.854Z,49.49
2018-03-02T03:32:49.862Z,49.59
2018-03-02T03:33:50.150Z,49.21
2018-03-02T03:34:49.872Z,49.02
2018-03-02T03:35:50.214Z,48.18
2018-03-02T03:36:50.166Z,47.89
2018-03-02T03:37:50.177Z,48.55
2018-03-02T03:38:50.180Z,48.18
2018-03-02T03:39:49.903Z,48.93
2018-03-02T03:40:50.192Z,48.93
2018-03-02T03:41:49.914Z,49.11
2018-03-02T03:42:50.203Z,48.55
2018-03-02T03:43:50.210Z,48.65
2018-03-02T03:44:50.213Z,48.83
2018-03-02T03:45:50.271Z,48.83
2018-03-02T03:46:50.238Z,48.74
2018-03-02T03:47:50.232Z,48.83
2018-03-02T03:48:49.955Z,48.46
2018-03-02T03:49:49.961Z,48.93
2018-03-02T03:50:50.023Z,48.65
2018-03-02T03:51:50.261Z,48.55
2018-03-02T03:52:49.981Z,48.27
2018-03-02T03:53:50.268Z,48.18
2018-03-02T03:54:50.277Z,48.65
2018-03-02T03:55:50.049Z,49.21
2018-03-02T03:56:50.290Z,49.02
2018-03-02T03:57:50.010Z,49.59
2018-03-02T03:58:50.298Z,49.21
2018-03-02T03:59:50.301Z,49.78
2018-03-02T04:00:50.314Z,49.68
2018-03-02T04:01:50.321Z,49.49
2018-03-02T04:02:50.323Z,49.97
2018-03-02T04:03:50.322Z,49.87
2018-03-02T04:04:50.329Z,49.3
2018-03-02T04:05:50.337Z,49.87
2018-03-02T04:06:50.348Z,49.87
2018-03-02T04:07:50.070Z,49.97
2018-03-02T04:08:50.071Z,49.68
2018-03-02T04:09:50.360Z,49.78
2018-03-02T04:10:50.413Z,49.68
2018-03-02T04:11:50.093Z,49.87
2018-03-02T04:12:50.376Z,49.68
2018-03-02T04:13:50.383Z,49.59
2018-03-02T04:14:50.390Z,49.68
2018-03-02T04:15:50.443Z,49.78
2018-03-02T04:16:50.117Z,49.3
2018-03-02T04:17:50.126Z,48.74
2018-03-02T04:18:50.416Z,48.36
2018-03-02T04:19:50.134Z,48.46
2018-03-02T04:20:50.429Z,49.11
2018-03-02T04:21:50.427Z,48.93
2018-03-02T04:22:50.437Z,49.02
2018-03-02T04:23:50.158Z,49.78
2018-03-02T04:24:50.454Z,49.49
2018-03-02T04:25:50.501Z,49.59
2018-03-02T04:26:50.458Z,49.68
2018-03-02T04:27:50.466Z,49.68
2018-03-02T04:28:50.470Z,50.06
2018-03-02T04:29:50.481Z,49.97
2018-03-02T04:30:50.478Z,50.06
2018-03-02T04:31:50.206Z,50.35
2018-03-02T04:32:50.504Z,50.25
2018-03-02T04:33:50.496Z,49.97
2018-03-02T04:34:50.223Z,49.59
2018-03-02T04:35:50.509Z,49.21
2018-03-02T04:36:50.242Z,49.3
2018-03-02T04:37:50.520Z,49.3
2018-03-02T04:38:50.523Z,49.49
2018-03-02T04:39:50.530Z,49.78
2018-03-02T04:40:50.537Z,49.49
2018-03-02T04:41:50.261Z,49.59
2018-03-02T04:42:50.550Z,49.97
2018-03-02T04:43:50.564Z,49.97
2018-03-02T04:44:50.279Z,49.87
2018-03-02T04:45:50.285Z,50.25
2018-03-02T04:46:50.573Z,50.25
2018-03-02T04:47:50.576Z,50.63
2018-03-02T04:48:50.580Z,50.35
2018-03-02T04:49:50.305Z,50.53
2018-03-02T04:50:50.311Z,50.63
2018-03-02T04:51:50.602Z,50.53
2018-03-02T04:52:50.621Z,50.44
2018-03-02T04:53:50.332Z,50.35
2018-03-02T04:54:50.334Z,50.44
2018-03-02T04:55:50.622Z,50.72
2018-03-02T04:56:50.682Z,50.82
2018-03-02T04:57:50.634Z,50.91
2018-03-02T04:58:50.640Z,51.01
2018-03-02T04:59:50.367Z,50.91
2018-03-02T05:00:50.368Z,50.91
2018-03-02T05:01:50.424Z,50.35
2018-03-02T05:02:50.660Z,50.63
2018-03-02T05:03:50.673Z,50.25
2018-03-02T05:04:50.673Z,50.44
2018-03-02T05:05:50.396Z,50.44
2018-03-02T05:06:50.740Z,50.72
2018-03-02T05:07:50.414Z,50.35
2018-03-02T05:08:50.416Z,50.35
2018-03-02T05:09:50.419Z,50.72
2018-03-02T05:10:50.424Z,50.72
2018-03-02T05:11:50.480Z,50.91
2018-03-02T05:12:50.438Z,50.91
2018-03-02T05:13:50.723Z,51.01
2018-03-02T05:14:50.830Z,51.1
2018-03-02T05:15:50.453Z,51.1
2018-03-02T05:16:50.459Z,50.91
2018-03-02T05:17:50.757Z,50.44
2018-03-02T05:18:50.471Z,50.35
2018-03-02T05:19:50.476Z,50.44
2018-03-02T05:20:50.767Z,50.44
2018-03-02T05:21:50.821Z,50.44
2018-03-02T05:22:50.493Z,50.35
2018-03-02T05:23:50.498Z,50.82
2018-03-02T05:24:50.504Z,51.01
2018-03-02T05:25:50.795Z,50.72
2018-03-02T05:26:50.515Z,51.1
2018-03-02T05:27:50.819Z,50.82
2018-03-02T05:28:50.535Z,50.91
2018-03-02T05:29:50.537Z,50.72
2018-03-02T05:30:50.823Z,50.91
2018-03-02T05:31:50.827Z,51.2
2018-03-02T05:32:50.832Z,50.82
2018-03-02T05:33:50.559Z,51.1
2018-03-02T05:34:50.563Z,50.91
2018-03-02T05:35:50.567Z,51.01
2018-03-02T05:36:50.854Z,51.2
2018-03-02T05:37:50.578Z,51.67
2018-03-02T05:38:50.582Z,51.67
2018-03-02T05:39:50.590Z,51.57
2018-03-02T05:40:50.878Z,51.86
2018-03-02T05:41:50.884Z,51.95
2018-03-02T05:42:50.891Z,51.86
2018-03-02T05:43:50.612Z,51.67
2018-03-02T05:44:50.907Z,51.57
2018-03-02T05:45:50.946Z,51.76
2018-03-02T05:46:50.913Z,51.76
2018-03-02T05:47:50.918Z,51.95
2018-03-02T05:48:50.923Z,51.95
2018-03-02T05:49:50.646Z,52.04
2018-03-02T05:50:50.933Z,52.04
2018-03-02T05:51:50.944Z,51.76
2018-03-02T05:52:51.007Z,52.04
2018-03-02T05:53:50.958Z,52.04
2018-03-02T05:54:50.957Z,52.33
2018-03-02T05:55:50.959Z,52.33
2018-03-02T05:56:50.969Z,52.04
2018-03-02T05:57:50.971Z,52.04
2018-03-02T05:58:50.976Z,51.76
2018-03-02T05:59:50.989Z,52.04
2018-03-02T06:00:50.705Z,51.95
2018-03-02T06:01:50.999Z,52.61
2018-03-02T06:02:51.009Z,52.14
2018-03-02T06:03:51.007Z,52.33
2018-03-02T06:04:51.015Z,52.04
2018-03-02T06:05:50.735Z,52.33
2018-03-02T06:06:51.029Z,52.61
2018-03-02T06:07:51.026Z,52.14
2018-03-02T06:08:51.042Z,52.14
2018-03-02T06:09:51.044Z,52.14
2018-03-02T06:10:50.766Z,52.51
2018-03-02T06:11:50.767Z,52.14
2018-03-02T06:12:51.055Z,51.86
2018-03-02T06:13:50.781Z,51.95
2018-03-02T06:14:50.787Z,52.04
2018-03-02T06:15:50.790Z,52.14
2018-03-02T06:16:51.080Z,52.04
2018-03-02T06:17:51.088Z,52.61
2018-03-02T06:18:50.811Z,52.14
2018-03-02T06:19:51.100Z,51.95
2018-03-02T06:20:51.100Z,51.95
2018-03-02T06:21:51.106Z,52.33
2018-03-02T06:22:51.115Z,52.14
2018-03-02T06:23:50.837Z,52.04
2018-03-02T06:24:51.124Z,52.14
2018-03-02T06:25:51.174Z,52.14
2018-03-02T06:26:51.136Z,51.95
2018-03-02T06:27:51.145Z,51.86
2018-03-02T06:28:51.150Z,52.23
2018-03-02T06:29:50.869Z,52.04
2018-03-02T06:30:50.879Z,52.04
2018-03-02T06:31:51.165Z,52.23
2018-03-02T06:32:51.174Z,52.14
2018-03-02T06:33:51.174Z,52.33
2018-03-02T06:34:50.921Z,52.51
2018-03-02T06:35:51.200Z,52.33
2018-03-02T06:36:51.192Z,52.04
2018-03-02T06:37:50.926Z,51.86
2018-03-02T06:38:51.208Z,51.76
2018-03-02T06:39:50.935Z,51.48
2018-03-02T06:40:51.215Z,51.1
2018-03-02T06:41:51.217Z,51.39
2018-03-02T06:42:51.223Z,51.39
2018-03-02T06:43:51.231Z,51.67
2018-03-02T06:44:51.238Z,51.57
2018-03-02T06:45:50.960Z,51.86
2018-03-02T06:46:51.257Z,52.14
2018-03-02T06:47:51.023Z,52.23
2018-03-02T06:48:51.262Z,51.95
2018-03-02T06:49:50.989Z,51.98
2018-03-02T06:50:50.989Z,51.88
2018-03-02T06:51:51.284Z,51.98
2018-03-02T06:52:51.336Z,51.88
2018-03-02T06:53:51.005Z,51.69
2018-03-02T06:54:51.295Z,51.6
2018-03-02T06:55:51.018Z,51.48
2018-03-02T06:56:51.311Z,51.6
2018-03-02T06:57:51.082Z,51.6
2018-03-02T06:58:51.316Z,51.6
2018-03-02T06:59:51.040Z,51.6
2018-03-02T07:00:51.331Z,51.69
2018-03-02T07:01:51.340Z,51.69
2018-03-02T07:02:51.339Z,51.69
2018-03-02T07:03:51.346Z,51.5
2018-03-02T07:04:51.069Z,51.6
2018-03-02T07:05:51.359Z,51.41
2018-03-02T07:06:51.081Z,51.41
2018-03-02T07:07:51.370Z,51.41
2018-03-02T07:08:51.375Z,51.79
2018-03-02T07:09:51.379Z,51.98
2018-03-02T07:10:51.389Z,51.98
2018-03-02T07:11:51.109Z,51.88
2018-03-02T07:12:51.448Z,52.17
2018-03-02T07:13:51.402Z,52.07
2018-03-02T07:14:51.410Z,52.36
2018-03-02T07:15:51.415Z,52.45
2018-03-02T07:16:51.420Z,52.55
2018-03-02T07:17:51.195Z,52.07
2018-03-02T07:18:51.150Z,52.07
2018-03-02T07:19:51.442Z,51.88
2018-03-02T07:20:51.447Z,51.88
2018-03-02T07:21:51.448Z,51.6
2018-03-02T07:22:51.528Z,51.5
2018-03-02T07:23:51.461Z,51.5
2018-03-02T07:24:51.184Z,51.69
2018-03-02T07:25:51.536Z,51.5
2018-03-02T07:26:51.488Z,51.98
2018-03-02T07:27:51.488Z,51.41
2018-03-02T07:28:51.489Z,51.5
2018-03-02T07:29:51.498Z,51.13
2018-03-02T07:30:51.500Z,51.32
2018-03-02T07:31:51.506Z,51.41
2018-03-02T07:32:51.550Z,51.5
2018-03-02T07:33:51.559Z,51.41
2018-03-02T07:34:51.245Z,51.41
2018-03-02T07:35:51.536Z,51.32
2018-03-02T07:36:51.253Z,51.22
2018-03-02T07:37:51.543Z,51.32
2018-03-02T07:38:51.549Z,51.03
2018-03-02T07:39:51.560Z,51.03
2018-03-02T07:40:51.561Z,51.22
2018-03-02T07:41:51.566Z,50.84
2018-03-02T07:42:51.571Z,50.94
2018-03-02T07:43:51.296Z,50.94
2018-03-02T07:44:51.302Z,51.03
2018-03-02T07:45:51.591Z,50.94
2018-03-02T07:46:51.598Z,51.03
2018-03-02T07:47:51.600Z,50.75
2018-03-02T07:48:51.325Z,50.37
2018-03-02T07:49:51.400Z,50.65
2018-03-02T07:50:51.337Z,50.65
2018-03-02T07:51:51.626Z,50.18
2018-03-02T07:52:51.349Z,50.65
2018-03-02T07:53:51.357Z,50.27
2018-03-02T07:54:51.646Z,50.09
2018-03-02T07:55:51.648Z,50.56
2018-03-02T07:56:51.373Z,50.46
2018-03-02T07:57:51.380Z,50.46
2018-03-02T07:58:51.667Z,50.46
2018-03-02T07:59:51.393Z,49.99
2018-03-02T08:00:51.400Z,49.83
2018-03-02T08:01:51.404Z,50.11
2018-03-02T08:02:51.691Z,50.09
2018-03-02T08:03:51.419Z,50.11
2018-03-02T08:04:51.703Z,50.11
2018-03-02T08:05:51.709Z,50.3
2018-03-02T08:06:51.720Z,50.4
2018-03-02T08:07:51.443Z,50.4
2018-03-02T08:08:51.446Z,50.49
2018-03-02T08:09:51.452Z,50.49
2018-03-02T08:10:51.738Z,50.4
2018-03-02T08:11:51.746Z,49.83
2018-03-02T08:12:51.750Z,49.92
2018-03-02T08:13:51.817Z,50.02
2018-03-02T08:14:51.481Z,49.64
2018-03-02T08:15:51.770Z,49.73
2018-03-02T08:16:51.781Z,49.64
2018-03-02T08:17:51.785Z,49.54
2018-03-02T08:18:51.849Z,49.64
2018-03-02T08:19:51.795Z,49.73
2018-03-02T08:20:51.521Z,49.83
2018-03-02T08:21:51.808Z,49.92
2018-03-02T08:22:51.812Z,50.11
2018-03-02T08:23:51.828Z,50.11
2018-03-02T08:24:51.828Z,50.3
2018-03-02T08:25:51.556Z,50.49
2018-03-02T08:26:51.848Z,50.3
2018-03-02T08:27:51.850Z,50.11
2018-03-02T08:28:51.619Z,50.02
2018-03-02T08:29:51.858Z,50.02
2018-03-02T08:30:51.865Z,50.02
2018-03-02T08:31:51.588Z,49.64
2018-03-02T08:32:51.602Z,49.73
2018-03-02T08:33:51.600Z,49.64
2018-03-02T08:34:51.606Z,50.02
2018-03-02T08:35:51.617Z,49.26
2018-03-02T08:36:51.906Z,49.54
2018-03-02T08:37:51.907Z,48.97
2018-03-02T08:38:51.920Z,49.07
2018-03-02T08:39:51.923Z,49.07
2018-03-02T08:40:51.648Z,48.72
2018-03-02T08:41:51.656Z,48.25
2018-03-02T08:42:51.970Z,48.34
2018-03-02T08:43:51.664Z,48.53
2018-03-02T08:44:51.959Z,48.63
2018-03-02T08:45:51.677Z,48.34
2018-03-02T08:46:51.693Z,48.06
2018-03-02T08:47:52.015Z,47.96
2018-03-02T08:48:51.699Z,47.87
2018-03-02T08:49:51.986Z,47.96
2018-03-02T08:50:51.997Z,47.68
2018-03-02T08:51:52.004Z,47.96
2018-03-02T08:52:51.759Z,47.77
2018-03-02T08:53:52.011Z,47.11
2018-03-02T08:54:51.736Z,47.2
2018-03-02T08:55:52.025Z,47.49
2018-03-02T08:56:52.033Z,46.92
2018-03-02T08:57:52.063Z,46.92
2018-03-02T08:58:52.044Z,46.45
2018-03-02T08:59:52.055Z,46.45
2018-03-02T09:00:51.779Z,46.55
2018-03-02T09:01:51.783Z,46.45
2018-03-02T09:02:52.076Z,46.83
2018-03-02T09:03:51.801Z,46.55
2018-03-02T09:04:51.828Z,46.36
2018-03-02T09:05:52.095Z,46.55
2018-03-02T09:06:52.100Z,46.36
2018-03-02T09:07:52.106Z,46.36
2018-03-02T09:08:52.113Z,46.55
2018-03-02T09:09:52.120Z,45.98
2018-03-02T09:10:52.139Z,45.88
2018-03-02T09:11:52.157Z,46.07
2018-03-02T09:12:51.863Z,46.07
2018-03-02T09:13:52.149Z,45.79
2018-03-02T09:14:51.923Z,45.88
2018-03-02T09:15:52.164Z,45.79
2018-03-02T09:16:52.168Z,45.41
2018-03-02T09:17:52.173Z,45.62
2018-03-02T09:18:52.180Z,45.43
2018-03-02T09:19:52.243Z,45.31
2018-03-02T09:20:52.198Z,45.24
2018-03-02T09:21:52.202Z,45.34
2018-03-02T09:22:51.930Z,45.72
2018-03-02T09:23:52.309Z,45.62
2018-03-02T09:24:52.294Z,45.62
2018-03-02T09:25:52.230Z,45.43
2018-03-02T09:26:51.954Z,45.05
2018-03-02T09:27:52.244Z,44.86
2018-03-02T09:28:51.973Z,44.67
2018-03-02T09:29:52.311Z,44.58
2018-03-02T09:30:52.267Z,44.48
2018-03-02T09:31:52.272Z,44.77
2018-03-02T09:32:51.999Z,44.96
2018-03-02T09:33:52.003Z,45.05
2018-03-02T09:34:52.012Z,45.15
2018-03-02T09:35:52.304Z,45.05
2018-03-02T09:36:52.307Z,45.43
2018-03-02T09:37:52.034Z,45.15
2018-03-02T09:38:52.324Z,45.34
2018-03-02T09:39:52.045Z,45.15
2018-03-02T09:40:52.069Z,44.96
2018-03-02T09:41:52.061Z,44.86
2018-03-02T09:42:52.425Z,44.77
2018-03-02T09:43:52.356Z,44.77
2018-03-02T09:44:52.363Z,44.77
2018-03-02T09:45:52.389Z,44.58
2018-03-02T09:46:52.097Z,44.48
2018-03-02T09:47:52.387Z,44.39
2018-03-02T09:48:52.395Z,44.39
2018-03-02T09:49:52.494Z,44.48
2018-03-02T09:50:52.411Z,44.48
2018-03-02T09:51:52.417Z,44.77
2018-03-02T09:52:52.426Z,44.48
2018-03-02T09:53:52.148Z,44.2
2018-03-02T09:54:52.441Z,43.82
2018-03-02T09:55:52.444Z,43.54
2018-03-02T09:56:52.454Z,43.73
2018-03-02T09:57:52.464Z,43.73
2018-03-02T09:58:52.466Z,43.91
2018-03-02T09:59:52.498Z,43.75
2018-03-02T10:00:52.483Z,43.65
2018-03-02T10:01:52.206Z,43.46
2018-03-02T10:02:52.496Z,43.08
2018-03-02T10:03:52.502Z,43.18
2018-03-02T10:04:52.518Z,42.8
2018-03-02T10:05:52.524Z,42.9
2018-03-02T10:06:52.243Z,43.18
2018-03-02T10:07:52.541Z,43.46
2018-03-02T10:08:52.548Z,43.37
2018-03-02T10:09:52.598Z,43.84
2018-03-02T10:10:52.558Z,43.94
2018-03-02T10:11:52.563Z,43.65
2018-03-02T10:12:52.570Z,43.65
2018-03-02T10:13:52.578Z,43.56
2018-03-02T10:14:52.305Z,42.99
2018-03-02T10:15:52.598Z,42.33
2018-03-02T10:16:52.602Z,42.52
2018-03-02T10:17:52.608Z,42.52
2018-03-02T10:18:52.616Z,42.23
2018-03-02T10:19:52.622Z,42.9
2018-03-02T10:20:52.634Z,42.23
2018-03-02T10:21:52.641Z,42.23
2018-03-02T10:22:52.648Z,42.8
2018-03-02T10:23:52.370Z,42.61
2018-03-02T10:24:52.660Z,42.61
2018-03-02T10:25:52.386Z,42.43
2018-03-02T10:26:52.677Z,42.43
2018-03-02T10:27:52.686Z,42.14
2018-03-02T10:28:52.698Z,41.66
2018-03-02T10:29:52.419Z,41.76
2018-03-02T10:30:52.426Z,41.66
2018-03-02T10:31:52.721Z,41.59
2018-03-02T10:32:52.442Z,41.57
2018-03-02T10:33:52.450Z,41.78
2018-03-02T10:34:52.456Z,41.78
2018-03-02T10:35:53.037Z,41.59
2018-03-02T10:36:52.475Z,41.31
2018-03-02T10:37:52.766Z,41.5
2018-03-02T10:38:52.825Z,41.5
2018-03-02T10:39:52.779Z,41.5
2018-03-02T10:40:52.787Z,41.59
2018-03-02T10:41:52.794Z,41.4
2018-03-02T10:42:52.803Z,41.59
2018-03-02T10:43:52.838Z,41.59
2018-03-02T10:44:52.538Z,41.31
2018-03-02T10:45:52.544Z,41.5
2018-03-02T10:46:52.840Z,41.4
2018-03-02T10:47:52.848Z,41.4
2018-03-02T10:48:52.851Z,41.4
2018-03-02T10:49:52.858Z,41.21
2018-03-02T10:50:52.585Z,41.21
2018-03-02T10:51:52.880Z,40.83
2018-03-02T10:52:52.884Z,40.36
2018-03-02T10:53:52.612Z,40.36
2018-03-02T10:54:52.617Z,41.02
2018-03-02T10:55:52.908Z,40.83
2018-03-02T10:56:52.633Z,40.17
2018-03-02T10:57:52.926Z,39.89
2018-03-02T10:58:52.935Z,40.09
2018-03-02T10:59:52.941Z,39.81
2018-03-02T11:00:52.667Z,39.81
2018-03-02T11:01:52.689Z,40
2018-03-02T11:02:52.966Z,40
2018-03-02T11:03:52.974Z,40
2018-03-02T11:04:52.702Z,40.28
2018-03-02T11:05:52.999Z,40.19
2018-03-02T11:06:52.719Z,40.09
2018-03-02T11:07:53.007Z,40.38
2018-03-02T11:08:53.023Z,40.28
2018-03-02T11:09:52.742Z,40.19
2018-03-02T11:10:52.751Z,40.28
2018-03-02T11:11:52.759Z,40.09
2018-03-02T11:12:53.051Z,39.9
2018-03-02T11:13:52.776Z,39.62
2018-03-02T11:14:53.079Z,39.53
2018-03-02T11:15:52.792Z,39.43
2018-03-02T11:16:52.801Z,39.53
2018-03-02T11:17:53.094Z,39.43
2018-03-02T11:18:52.824Z,39.9
2018-03-02T11:19:53.109Z,39.62
2018-03-02T11:20:52.899Z,39.9
2018-03-02T11:21:53.138Z,39.34
2018-03-02T11:22:53.136Z,38.58
2018-03-02T11:23:52.868Z,38.2
2018-03-02T11:24:52.872Z,38.2
2018-03-02T11:25:53.211Z,38.2
2018-03-02T11:26:53.174Z,38.39
2018-03-02T11:27:52.897Z,38.2
2018-03-02T11:28:53.191Z,37.82
2018-03-02T11:29:52.915Z,37.44
2018-03-02T11:30:53.257Z,37.44
2018-03-02T11:31:52.931Z,37.54
2018-03-02T11:32:52.940Z,37.73
2018-03-02T11:33:52.949Z,37.55
2018-03-02T11:34:53.240Z,36.87
2018-03-02T11:35:53.258Z,37.55
2018-03-02T11:36:53.259Z,37.65
2018-03-02T11:37:53.271Z,37.74
2018-03-02T11:38:53.278Z,37.55
2018-03-02T11:39:53.286Z,37.37
2018-03-02T11:40:53.296Z,37.27
2018-03-02T11:41:53.346Z,37.37
2018-03-02T11:42:53.316Z,36.99
2018-03-02T11:43:53.039Z,36.22
2018-03-02T11:44:53.330Z,35.47
2018-03-02T11:45:53.341Z,35.38
2018-03-02T11:46:53.373Z,35.57
2018-03-02T11:47:53.357Z,35.85
2018-03-02T11:48:53.367Z,36.51
2018-03-02T11:49:53.380Z,36.51
2018-03-02T11:50:53.386Z,36.89
2018-03-02T11:51:53.395Z,36.7
2018-03-02T11:52:53.404Z,36.89
2018-03-02T11:53:53.133Z,37.18
2018-03-02T11:54:53.147Z,37.65
2018-03-02T11:55:53.438Z,37.37
2018-03-02T11:56:53.441Z,37.65
2018-03-02T11:57:53.452Z,37.84
2018-03-02T11:58:53.190Z,37.65
2018-03-02T11:59:53.468Z,37.55
2018-03-02T12:00:53.204Z,37.18
2018-03-02T12:01:53.491Z,37.46
2018-03-02T12:02:53.494Z,37.46
2018-03-02T12:03:53.519Z,37.37
2018-03-02T12:04:53.514Z,36.7
2018-03-02T12:05:53.244Z,36.32
2018-03-02T12:06:53.541Z,36.7
2018-03-02T12:07:53.544Z,36.32
2018-03-02T12:08:53.553Z,36.32
2018-03-02T12:09:53.279Z,36.42
2018-03-02T12:10:53.569Z,36.32
2018-03-02T12:11:53.297Z,35.66
2018-03-02T12:12:53.589Z,35.38
2018-03-02T12:13:53.598Z,35.66
2018-03-02T12:14:53.608Z,35.75
2018-03-02T12:15:53.617Z,35.38
2018-03-02T12:16:53.687Z,35.47
2018-03-02T12:17:53.635Z,35.57
2018-03-02T12:18:53.365Z,35.38
2018-03-02T12:19:53.374Z,35.18
2018-03-02T12:20:53.669Z,35.09
2018-03-02T12:21:53.391Z,35.66
2018-03-02T12:22:53.721Z,35.28
2018-03-02T12:23:53.411Z,35.09
2018-03-02T12:24:53.715Z,35.57
2018-03-02T12:25:53.431Z,35.66
2018-03-02T12:26:53.439Z,35.18
2018-03-02T12:27:53.731Z,35.28
2018-03-02T12:28:53.458Z,34.33
2018-03-02T12:29:53.753Z,34.42
2018-03-02T12:30:53.764Z,34.33
2018-03-02T12:31:53.771Z,34.52
2018-03-02T12:32:53.779Z,34.42
2018-03-02T12:33:53.790Z,34.23
2018-03-02T12:34:53.532Z,33.86
2018-03-02T12:35:53.809Z,33.38
2018-03-02T12:36:53.535Z,33.86
2018-03-02T12:37:53.826Z,34.42
2018-03-02T12:38:53.861Z,34.33
2018-03-02T12:39:53.849Z,34.14
2018-03-02T12:40:53.857Z,34.05
2018-03-02T12:41:53.585Z,33.86
2018-03-02T12:42:53.596Z,34.52
2018-03-02T12:43:53.893Z,34.42
2018-03-02T12:44:53.899Z,34.33
2018-03-02T12:45:53.626Z,34.61
2018-03-02T12:46:53.635Z,34.42
2018-03-02T12:47:53.924Z,33.76
2018-03-02T12:48:53.937Z,33.38
2018-03-02T12:49:54.059Z,33.57
2018-03-02T12:50:53.956Z,34.33
2018-03-02T12:51:53.697Z,34.42
2018-03-02T12:52:53.977Z,35.09
2018-03-02T12:53:53.987Z,34.99
2018-03-02T12:54:53.712Z,34.99
2018-03-02T12:55:53.723Z,34.33